Time;durP1;ratioP1;P1;durP2;ratioP2;P2;SDS_P1;SDS_P2;PMS_P1;PMS_P2;Temp;Humidity;BMP_temperature;BMP_pressure;BME280_temperature;BME280_humidity;BME280_pressure;Samples;Min_cycle;Max_cycle;Signal;HPM_P1;HPM_P2
2022/10/15 00:01:12;;;;;;;39.92;27.80;;;;;;;9.44;79.39;97217.28;1804118;79;26016;-89
2022/10/15 00:03:42;;;;;;;40.95;29.40;;;;;;;9.43;79.42;97217.80;1804170;79;25709;-88
2022/10/15 00:06:16;;;;;;;43.13;27.62;;;;;;;9.45;79.49;97214.90;1804093;79;27389;-90
2022/10/15 00:08:43;;;;;;;38.42;25.40;;;;;;;9.43;79.49;97205.67;1783488;79;25744;-90
2022/10/15 00:11:17;;;;;;;38.00;25.88;;;;;;;9.42;79.52;97208.06;1804231;78;25720;-86
2022/10/15 00:13:44;;;;;;;38.35;25.70;;;;;;;9.44;79.57;97196.56;1796788;79;25723;-88
2022/10/15 00:16:15;;;;;;;32.25;23.55;;;;;;;9.44;79.54;97199.25;1796752;79;25703;-89
2022/10/15 00:18:42;;;;;;;35.23;24.67;;;;;;;9.42;79.57;97201.32;1804106;79;27426;-89
2022/10/15 00:21:13;;;;;;;37.67;24.47;;;;;;;9.43;79.57;97194.90;1792654;79;25281;-89
2022/10/15 00:23:41;;;;;;;37.95;25.48;;;;;;;9.43;79.59;97189.52;1777772;79;25701;-88
2022/10/15 00:26:17;;;;;;;32.53;23.60;;;;;;;9.40;79.61;97187.26;1779688;79;26493;-89
2022/10/15 00:28:44;;;;;;;35.10;24.20;;;;;;;9.40;79.69;97187.26;1800194;79;25776;-88
2022/10/15 00:31:15;;;;;;;35.43;25.12;;;;;;;9.41;79.65;97190.78;1784067;79;27384;-89
2022/10/15 00:33:42;;;;;;;36.55;25.27;;;;;;;9.40;79.69;97177.83;1798022;79;25747;-91
2022/10/15 00:36:17;;;;;;;34.23;25.95;;;;;;;9.41;79.71;97180.84;1792989;79;25742;-89
2022/10/15 00:38:44;;;;;;;33.67;24.05;;;;;;;9.42;79.65;97186.50;1788208;79;26378;-89
2022/10/15 00:41:16;;;;;;;31.30;23.27;;;;;;;9.44;79.65;97188.48;1784261;79;25705;-88
2022/10/15 00:43:50;;;;;;;33.02;24.52;;;;;;;9.43;79.64;97185.47;1798290;79;27358;-87
2022/10/15 00:46:32;;;;;;;32.88;22.62;;;;;;;9.43;79.68;97184.12;1782498;79;25843;-86
2022/10/15 00:49:06;;;;;;;33.15;23.62;;;;;;;9.38;79.65;97179.38;1800583;79;25811;-90
2022/10/15 00:51:38;;;;;;;33.00;22.62;;;;;;;9.39;79.70;97177.52;1787067;79;26727;-88
2022/10/15 00:54:05;;;;;;;31.95;22.93;;;;;;;9.38;79.72;97183.94;1796886;79;25812;-88
2022/10/15 00:56:34;;;;;;;33.20;23.90;;;;;;;9.35;79.78;97169.02;1804126;79;27347;-88
2022/10/15 00:59:01;;;;;;;32.50;23.05;;;;;;;9.35;79.82;97171.71;1803921;79;25666;-88
2022/10/15 01:01:28;;;;;;;32.75;23.83;;;;;;;9.35;79.89;97175.75;1804091;79;25654;-89
2022/10/15 01:03:55;;;;;;;32.88;24.65;;;;;;;9.34;79.89;97169.22;1804070;79;25718;-90
2022/10/15 01:06:22;;;;;;;29.37;21.20;;;;;;;9.34;79.92;97166.53;1786036;79;26355;-89
2022/10/15 01:08:48;;;;;;;35.80;23.98;;;;;;;9.36;79.97;97161.77;1772947;79;28169;-89
2022/10/15 01:11:47;;;;;;;37.38;26.05;;;;;;;9.35;80.01;97158.77;1803561;79;25929;-88
2022/10/15 01:14:43;;;;;;;36.30;25.02;;;;;;;9.31;80.04;97154.82;1804040;79;25737;-90
2022/10/15 01:17:24;;;;;;;34.63;23.18;;;;;;;9.31;80.15;97146.73;1803966;79;25725;-90
2022/10/15 01:20:16;;;;;;;31.30;22.85;;;;;;;9.34;80.23;97153.89;1790042;79;25866;-90
2022/10/15 01:22:53;;;;;;;30.20;22.73;;;;;;;9.35;80.22;97145.30;1804431;79;27318;-90
2022/10/15 01:25:59;;;;;;;31.15;22.58;;;;;;;9.36;80.24;97144.26;1802216;79;26069;-88
2022/10/15 01:28:42;;;;;;;29.10;20.43;;;;;;;9.35;80.25;97147.98;1805851;79;25763;-90
2022/10/15 01:31:32;;;;;;;31.90;22.30;;;;;;;9.35;80.29;97142.08;1806338;79;25780;-87
2022/10/15 01:34:07;;;;;;;29.92;22.37;;;;;;;9.34;80.25;97145.81;1807280;79;25645;-89
2022/10/15 01:36:48;;;;;;;33.88;22.30;;;;;;;9.35;80.30;97147.98;1786271;79;27348;-86
2022/10/15 01:39:29;;;;;;;31.35;23.20;;;;;;;9.32;80.39;97145.19;1791836;79;25725;-89
2022/10/15 01:42:00;;;;;;;34.30;22.48;;;;;;;9.29;80.47;97143.45;1799248;79;25713;-90
2022/10/15 01:44:37;;;;;;;32.73;22.65;;;;;;;9.33;80.57;97147.36;1762395;80;25839;-90
2022/10/15 01:47:09;;;;;;;32.10;23.40;;;;;;;9.37;80.60;97141.36;1805497;79;26150;-90
2022/10/15 01:49:40;;;;;;;31.60;24.43;;;;;;;9.38;80.64;97146.23;1781233;79;27366;-90
2022/10/15 01:52:15;;;;;;;33.78;24.30;;;;;;;9.36;80.82;97141.56;1781859;79;25713;-91
2022/10/15 01:54:45;;;;;;;37.45;24.23;;;;;;;9.37;80.97;97140.53;1799052;79;25833;-90
2022/10/15 01:57:13;;;;;;;32.65;22.80;;;;;;;9.41;80.95;97136.91;1807262;79;26455;-89
2022/10/15 01:59:41;;;;;;;32.35;22.95;;;;;;;9.44;80.90;97131.08;1807412;78;25717;-89
2022/10/15 02:02:08;;;;;;;34.58;23.02;;;;;;;9.44;80.91;97130.55;1807289;79;28185;-90
2022/10/15 02:04:35;;;;;;;31.15;20.85;;;;;;;9.40;80.92;97132.03;1807379;79;25684;-88
2022/10/15 02:07:08;;;;;;;31.90;22.48;;;;;;;9.40;80.95;97127.99;1795642;79;25811;-91
2022/10/15 02:09:56;;;;;;;30.70;21.82;;;;;;;9.43;80.95;97131.59;1796089;79;25728;-89
2022/10/15 02:12:51;;;;;;;28.25;21.17;;;;;;;9.46;80.95;97133.04;1807442;79;25642;-89
2022/10/15 02:15:23;;;;;;;29.35;20.55;;;;;;;9.47;80.93;97134.18;1807514;78;28014;-90
2022/10/15 02:18:26;;;;;;;33.13;21.68;;;;;;;9.51;80.95;97133.25;1791713;79;33266;-90
2022/10/15 02:21:00;;;;;;;36.40;22.35;;;;;;;9.51;80.89;97128.69;1803030;79;25652;-89
2022/10/15 02:23:32;;;;;;;29.95;21.77;;;;;;;9.54;80.91;97128.80;1794146;79;25730;-90
2022/10/15 02:25:59;;;;;;;39.38;25.60;;;;;;;9.55;81.02;97123.69;1796998;79;25239;-89
2022/10/15 02:28:28;;;;;;;33.63;24.18;;;;;;;9.55;81.19;97133.11;1786937;79;27341;-90
2022/10/15 02:30:57;;;;;;;33.42;22.17;;;;;;;9.54;81.12;97128.80;1806974;79;25688;-88
2022/10/15 02:33:26;;;;;;;32.30;22.15;;;;;;;9.53;81.16;97125.27;1807087;79;25257;-90
2022/10/15 02:35:54;;;;;;;33.65;21.37;;;;;;;9.53;81.11;97119.88;1786482;79;25787;-90
2022/10/15 02:38:24;;;;;;;30.88;22.20;;;;;;;9.56;81.07;97112.70;1805506;79;25715;-90
2022/10/15 02:40:52;;;;;;;32.15;22.05;;;;;;;9.60;81.04;97117.98;1788628;79;27316;-88
2022/10/15 02:43:20;;;;;;;31.12;21.73;;;;;;;9.61;81.04;97115.59;1781123;79;25824;-89
2022/10/15 02:45:48;;;;;;;26.17;20.80;;;;;;;9.60;81.04;97117.98;1792320;79;25749;-88
2022/10/15 02:48:16;;;;;;;29.02;21.52;;;;;;;9.58;81.00;97116.02;1799182;79;26310;-89
2022/10/15 02:50:42;;;;;;;29.65;21.35;;;;;;;9.57;80.99;97113.53;1789122;79;25783;-88
2022/10/15 02:53:09;;;;;;;30.52;20.30;;;;;;;9.54;80.99;97112.63;1807091;79;27397;-89
2022/10/15 02:55:36;;;;;;;29.98;21.07;;;;;;;9.52;80.96;97115.53;1806681;79;26396;-89
2022/10/15 02:58:02;;;;;;;28.30;19.98;;;;;;;9.54;80.94;97118.81;1807173;79;25852;-89
2022/10/15 03:00:29;;;;;;;29.90;20.27;;;;;;;9.55;80.87;97105.65;1785154;79;25761;-89
2022/10/15 03:02:55;;;;;;;39.50;27.70;;;;;;;9.52;80.84;97112.83;1807067;79;26084;-90
2022/10/15 03:05:22;;;;;;;31.80;22.90;;;;;;;9.49;80.81;97113.25;1801169;79;27318;-90
2022/10/15 03:07:48;;;;;;;32.03;22.32;;;;;;;9.47;80.83;97107.23;1776735;79;25782;-91
2022/10/15 03:10:14;;;;;;;33.50;22.35;;;;;;;9.50;80.82;97102.78;1799080;79;25253;-91
2022/10/15 03:12:41;;;;;;;27.42;20.23;;;;;;;9.51;80.71;97104.96;1806039;79;25800;-91
2022/10/15 03:15:08;;;;;;;30.65;20.75;;;;;;;9.50;80.57;97103.30;1807009;79;25631;-92
2022/10/15 03:17:35;;;;;;;29.12;19.77;;;;;;;9.48;80.50;97104.86;1806004;79;26896;-90
2022/10/15 03:20:01;;;;;;;25.00;19.07;;;;;;;9.45;80.36;97103.92;1788264;79;25924;-90
2022/10/15 03:22:28;;;;;;;30.90;18.55;;;;;;;9.38;80.28;97112.55;1798114;79;25747;-91
2022/10/15 03:24:54;;;;;;;23.52;18.23;;;;;;;9.32;80.18;97114.20;1791608;79;26537;-91
2022/10/15 03:27:21;;;;;;;25.77;18.05;;;;;;;9.27;80.12;97117.24;1806869;79;25988;-91
2022/10/15 03:29:47;;;;;;;21.68;16.97;;;;;;;9.22;80.01;97104.91;1806560;79;28239;-91
2022/10/15 03:32:14;;;;;;;28.25;19.25;;;;;;;9.18;80.01;97105.02;1802491;79;25732;-91
2022/10/15 03:34:40;;;;;;;22.55;18.00;;;;;;;9.14;79.82;97109.18;1806961;79;25686;-89
2022/10/15 03:37:07;;;;;;;26.57;18.42;;;;;;;9.05;79.79;97106.41;1806918;79;25807;-88
2022/10/15 03:39:33;;;;;;;23.42;17.45;;;;;;;9.01;79.86;97105.98;1806053;79;25718;-89
2022/10/15 03:42:00;;;;;;;24.23;18.52;;;;;;;8.95;79.93;97105.45;1790559;79;28241;-90
2022/10/15 03:44:27;;;;;;;20.88;16.97;;;;;;;8.90;79.83;97112.83;1783771;79;25787;-87
2022/10/15 03:46:53;;;;;;;29.25;18.67;;;;;;;8.81;79.68;97119.47;1805394;79;25716;-89
2022/10/15 03:49:20;;;;;;;22.93;17.82;;;;;;;8.77;79.84;97107.97;1807053;79;26318;-89
2022/10/15 03:51:46;;;;;;;22.37;17.60;;;;;;;8.75;80.02;97113.55;1806882;79;25855;-89
2022/10/15 03:54:13;;;;;;;23.50;17.57;;;;;;;8.73;79.96;97107.54;1806999;79;27563;-89
2022/10/15 03:56:39;;;;;;;31.30;20.97;;;;;;;8.71;79.96;97113.64;1806832;79;25769;-88
2022/10/15 03:59:06;;;;;;;33.67;23.52;;;;;;;8.67;79.93;97103.00;1807065;79;25794;-89
2022/10/15 04:01:33;;;;;;;41.08;25.20;;;;;;;8.64;79.92;97090.78;1806962;79;26314;-88
2022/10/15 04:03:59;;;;;;;47.17;27.62;;;;;;;8.59;79.87;97083.83;1806958;79;25658;-88
2022/10/15 04:06:26;;;;;;;44.40;27.48;;;;;;;8.57;79.93;97086.44;1807105;79;27504;-89
2022/10/15 04:08:52;;;;;;;45.43;27.13;;;;;;;8.58;79.99;97081.34;1792922;79;25737;-89
2022/10/15 04:11:19;;;;;;;40.08;25.40;;;;;;;8.51;79.82;97080.53;1807036;79;25732;-88
2022/10/15 04:13:49;;;;;;;36.65;24.67;;;;;;;8.46;79.79;97077.61;1793062;79;25764;-86
2022/10/15 04:16:17;;;;;;;32.50;21.37;;;;;;;8.36;79.63;97084.75;1807063;79;25677;-89
2022/10/15 04:18:44;;;;;;;32.48;22.95;;;;;;;8.28;79.78;97077.69;1807062;79;28155;-88
2022/10/15 04:21:10;;;;;;;30.65;20.77;;;;;;;8.27;79.87;97077.88;1800448;79;25750;-89
2022/10/15 04:23:37;;;;;;;33.33;21.93;;;;;;;8.25;79.81;97072.70;1787175;79;25669;-89
2022/10/15 04:26:03;;;;;;;34.88;22.90;;;;;;;8.24;79.71;97076.43;1805716;79;25753;-89
2022/10/15 04:28:30;;;;;;;31.93;22.07;;;;;;;8.22;79.53;97072.28;1796726;79;26485;-87
2022/10/15 04:30:58;;;;;;;31.37;21.33;;;;;;;8.18;79.55;97072.40;1804977;79;27315;-87
2022/10/15 04:33:26;;;;;;;31.62;21.77;;;;;;;8.14;79.47;97070.62;1799383;79;25728;-88
2022/10/15 04:36:09;;;;;;;29.63;21.48;;;;;;;8.10;79.49;97069.36;1803533;79;25776;-88
2022/10/15 04:38:36;;;;;;;30.62;19.67;;;;;;;8.09;79.48;97072.28;1807478;79;25673;-87
2022/10/15 04:41:07;;;;;;;28.50;19.70;;;;;;;8.05;79.47;97077.23;1807517;79;25689;-86
2022/10/15 04:43:35;;;;;;;28.40;19.32;;;;;;;8.03;79.32;97068.53;1802967;79;28475;-87
2022/10/15 04:46:04;;;;;;;30.82;21.35;;;;;;;7.99;79.30;97072.66;1799784;79;25954;-88
2022/10/15 04:48:33;;;;;;;32.42;21.40;;;;;;;7.92;79.37;97075.85;1807336;79;26251;-86
2022/10/15 04:51:14;;;;;;;42.38;24.95;;;;;;;7.92;79.38;97078.02;1807403;79;25711;-87
2022/10/15 04:53:41;;;;;;;38.80;25.82;;;;;;;7.86;79.34;97083.36;1807267;79;25798;-86
2022/10/15 04:56:16;;;;;;;44.73;29.02;;;;;;;7.83;79.28;97085.97;1807334;79;28187;-87
2022/10/15 04:58:46;;;;;;;40.08;25.10;;;;;;;7.81;79.27;97087.19;1807103;79;25242;-88
2022/10/15 05:01:16;;;;;;;32.70;24.35;;;;;;;7.79;79.35;97086.55;1807303;78;25759;-89
2022/10/15 05:03:45;;;;;;;31.62;23.73;;;;;;;7.77;79.35;97080.55;1807000;79;43703;-86
2022/10/15 05:06:17;;;;;;;33.50;22.15;;;;;;;7.78;79.32;97086.23;1807069;79;26300;-87
2022/10/15 05:08:44;;;;;;;28.85;20.62;;;;;;;7.75;79.31;97083.43;1807423;79;27386;-88
2022/10/15 05:11:21;;;;;;;29.20;20.92;;;;;;;7.73;79.30;97082.00;1807249;79;25750;-88
2022/10/15 05:13:49;;;;;;;29.77;19.73;;;;;;;7.68;79.35;97089.82;1795239;79;26481;-86
2022/10/15 05:16:23;;;;;;;28.57;19.50;;;;;;;7.65;79.47;97079.47;1807439;79;26602;-85
2022/10/15 05:18:57;;;;;;;32.85;19.92;;;;;;;7.56;79.41;97081.00;1794885;79;25832;-89
2022/10/15 05:21:24;;;;;;;34.55;23.67;;;;;;;7.47;79.45;97084.06;1807326;79;27419;-87
2022/10/15 05:23:51;;;;;;;33.88;22.42;;;;;;;7.40;79.63;97073.27;1806093;79;25680;-88
2022/10/15 05:26:21;;;;;;;36.03;23.32;;;;;;;7.43;79.85;97081.45;1764225;79;25733;-88
2022/10/15 05:28:48;;;;;;;38.80;26.17;;;;;;;7.44;79.88;97079.08;1774809;79;25819;-87
2022/10/15 05:31:19;;;;;;;36.05;25.05;;;;;;;7.39;79.84;97076.98;1803161;79;25894;-88
2022/10/15 05:33:50;;;;;;;43.35;25.00;;;;;;;7.36;79.94;97084.11;1784726;79;27237;-89
2022/10/15 05:36:26;;;;;;;40.78;25.68;;;;;;;7.28;80.09;97077.55;1802371;79;25695;-88
2022/10/15 05:38:59;;;;;;;40.20;25.23;;;;;;;7.24;80.22;97081.67;1784412;79;25747;-89
2022/10/15 05:41:28;;;;;;;44.45;26.75;;;;;;;7.23;80.37;97080.02;1803007;79;25722;-86
2022/10/15 05:43:57;;;;;;;41.68;26.60;;;;;;;7.18;80.36;97075.73;1796209;79;25762;-88
2022/10/15 05:46:24;;;;;;;35.03;22.90;;;;;;;7.15;80.51;97080.16;1797934;79;28253;-88
2022/10/15 05:48:53;;;;;;;36.93;22.67;;;;;;;7.10;80.56;97075.91;1803791;79;25870;-85
2022/10/15 05:51:20;;;;;;;33.35;21.30;;;;;;;7.08;80.73;97071.25;1803919;79;25765;-86
2022/10/15 05:53:47;;;;;;;30.92;22.07;;;;;;;7.08;80.92;97073.42;1803872;79;25717;-88
2022/10/15 05:56:15;;;;;;;39.30;27.87;;;;;;;7.12;81.00;97079.23;1803963;79;25752;-92
2022/10/15 05:58:41;;;;;;;46.00;28.20;;;;;;;7.18;81.13;97073.88;1786425;79;27514;-85
2022/10/15 06:01:11;;;;;;;32.90;22.48;;;;;;;7.25;81.24;97076.59;1769090;79;26131;-87
2022/10/15 06:03:40;;;;;;;41.98;27.60;;;;;;;7.32;81.34;97069.93;1794052;79;25662;-85
2022/10/15 06:06:17;;;;;;;50.50;32.88;;;;;;;7.40;81.42;97069.23;1803910;79;25712;-89
2022/10/15 06:08:45;;;;;;;48.40;29.25;;;;;;;7.50;81.49;97071.04;1789822;79;25841;-90
2022/10/15 06:11:12;;;;;;;45.67;27.00;;;;;;;7.57;81.58;97078.62;1803584;79;26797;-88
2022/10/15 06:13:40;;;;;;;39.95;24.52;;;;;;;7.63;81.61;97082.87;1803819;79;25667;-90
2022/10/15 06:16:08;;;;;;;36.13;23.73;;;;;;;7.71;81.62;97075.48;1804113;79;26350;-86
2022/10/15 06:18:37;;;;;;;36.88;23.40;;;;;;;7.82;81.60;97086.98;1803890;79;26493;-87
2022/10/15 06:21:07;;;;;;;33.65;23.12;;;;;;;7.92;81.64;97093.31;1789914;79;25709;-87
2022/10/15 06:23:34;;;;;;;34.30;22.22;;;;;;;8.01;81.67;97083.20;1803995;79;27333;-89
2022/10/15 06:26:06;;;;;;;36.03;23.12;;;;;;;8.12;81.69;97083.44;1803804;79;26328;-88
2022/10/15 06:28:33;;;;;;;29.90;20.75;;;;;;;8.22;81.67;97084.38;1804201;79;25725;-89
2022/10/15 06:31:01;;;;;;;29.90;22.15;;;;;;;8.30;81.76;97096.31;1803450;79;25692;-89
2022/10/15 06:33:28;;;;;;;31.00;22.20;;;;;;;8.39;81.82;97098.31;1803619;79;25680;-88
2022/10/15 06:36:01;;;;;;;36.55;22.37;;;;;;;8.46;81.86;97092.41;1803843;79;27210;-86
2022/10/15 06:38:27;;;;;;;37.00;21.95;;;;;;;8.54;81.82;97099.78;1804069;79;25684;-86
2022/10/15 06:40:54;;;;;;;30.30;21.60;;;;;;;8.65;81.91;97102.38;1803796;79;26018;-89
2022/10/15 06:43:21;;;;;;;28.55;19.60;;;;;;;8.74;81.86;97113.23;1800728;79;25686;-87
2022/10/15 06:45:47;;;;;;;30.05;20.50;;;;;;;8.83;81.92;97106.60;1793310;79;25863;-86
2022/10/15 06:48:14;;;;;;;32.15;22.25;;;;;;;8.90;81.89;97107.45;1804007;79;27354;-84
2022/10/15 06:50:40;;;;;;;31.25;21.25;;;;;;;8.99;81.82;97116.95;1791902;79;25693;-87
2022/10/15 06:53:08;;;;;;;32.45;20.88;;;;;;;9.10;81.89;97118.70;1758650;79;25727;-86
2022/10/15 06:55:35;;;;;;;34.03;21.62;;;;;;;9.18;81.80;97109.88;1803591;79;25813;-88
2022/10/15 06:58:01;;;;;;;33.63;21.52;;;;;;;9.30;81.82;97116.80;1803952;79;25687;-87
2022/10/15 07:00:28;;;;;;;30.68;21.68;;;;;;;9.40;81.84;97122.61;1803392;79;28238;-88
2022/10/15 07:02:55;;;;;;;32.83;21.02;;;;;;;9.51;81.77;97111.17;1803813;79;25836;-87
2022/10/15 07:05:22;;;;;;;32.85;21.55;;;;;;;9.61;81.76;97112.91;1803929;79;25708;-86
2022/10/15 07:07:54;;;;;;;29.07;20.62;;;;;;;9.75;81.81;97109.64;1804001;79;26342;-87
2022/10/15 07:10:21;;;;;;;28.90;20.20;;;;;;;9.87;81.75;97110.63;1788798;79;25890;-88
2022/10/15 07:12:48;;;;;;;31.73;20.65;;;;;;;10.04;81.66;97097.47;1791568;79;28217;-88
2022/10/15 07:15:15;;;;;;;28.65;21.10;;;;;;;10.21;81.67;97114.85;1803907;79;25672;-89
2022/10/15 07:17:55;;;;;;;34.98;21.30;;;;;;;10.36;81.62;97115.39;1803983;79;25737;-88
2022/10/15 07:20:21;;;;;;;36.20;23.38;;;;;;;10.51;81.52;97100.74;1803936;79;25751;-89
2022/10/15 07:22:47;;;;;;;34.00;24.55;;;;;;;10.64;81.33;97100.13;1780692;79;25931;-88
2022/10/15 07:25:15;;;;;;;33.15;23.27;;;;;;;10.79;81.19;97099.81;1772238;79;27385;-89
2022/10/15 07:27:41;;;;;;;34.05;24.75;;;;;;;10.91;81.18;97096.70;1801008;79;26576;-88
2022/10/15 07:30:09;;;;;;;39.20;25.32;;;;;;;11.06;81.19;97107.17;1803755;79;25779;-89
2022/10/15 07:32:36;;;;;;;37.25;24.30;;;;;;;11.19;81.07;97107.05;1803992;79;25778;-89
2022/10/15 07:35:03;;;;;;;34.18;24.67;;;;;;;11.31;80.85;97096.34;1790282;79;25852;-87
2022/10/15 07:37:30;;;;;;;33.40;23.85;;;;;;;11.43;80.67;97102.14;1794557;79;27367;-89
2022/10/15 07:39:57;;;;;;;36.98;22.73;;;;;;;11.55;80.68;97111.67;1783520;79;25747;-89
2022/10/15 07:42:23;;;;;;;32.23;22.80;;;;;;;11.64;80.66;97113.03;1783064;79;25725;-87
2022/10/15 07:44:50;;;;;;;32.67;23.07;;;;;;;11.72;80.31;97102.42;1789019;79;26480;-89
2022/10/15 07:47:16;;;;;;;32.48;22.30;;;;;;;11.81;80.42;97107.88;1796678;79;25219;-89
2022/10/15 07:49:43;;;;;;;30.77;22.40;;;;;;;11.88;80.56;97108.09;1797504;79;27442;-89
2022/10/15 07:52:10;;;;;;;33.45;23.92;;;;;;;11.95;80.49;97105.85;1803989;79;25841;-88
2022/10/15 07:54:36;;;;;;;34.33;24.47;;;;;;;12.04;80.36;97111.24;1804144;79;25728;-89
2022/10/15 07:57:05;;;;;;;37.73;27.98;;;;;;;12.11;80.24;97110.62;1789967;79;25789;-90
2022/10/15 07:59:33;;;;;;;42.30;28.23;;;;;;;12.18;80.25;97111.38;1804137;79;25671;-88
2022/10/15 08:02:00;;;;;;;43.45;28.20;;;;;;;12.26;80.11;97111.05;1804081;79;27360;-90
2022/10/15 08:04:26;;;;;;;35.03;25.17;;;;;;;12.39;80.20;97108.16;1795315;79;25800;-90
2022/10/15 08:06:53;;;;;;;25.40;21.27;;;;;;;12.57;80.08;97104.02;1799032;79;25724;-89
2022/10/15 08:09:20;;;;;;;32.30;21.45;;;;;;;12.71;79.24;97108.72;1803982;79;26430;-89
2022/10/15 08:11:46;;;;;;;29.32;22.48;;;;;;;12.84;79.22;97107.68;1804046;79;26294;-89
2022/10/15 08:14:13;;;;;;;27.70;20.80;;;;;;;12.97;79.17;97107.47;1804075;78;28334;-89
2022/10/15 08:16:40;;;;;;;25.95;20.75;;;;;;;13.06;79.00;97106.59;1803959;79;25212;-88
2022/10/15 08:19:06;;;;;;;24.63;19.50;;;;;;;13.13;78.49;97104.08;1795208;79;25673;-87
2022/10/15 08:21:33;;;;;;;29.15;18.57;;;;;;;13.32;78.04;97110.23;1777771;79;26303;-89
2022/10/15 08:23:59;;;;;;;26.42;19.37;;;;;;;13.58;77.64;97111.64;1804024;79;25693;-90
2022/10/15 08:26:26;;;;;;;22.70;18.48;;;;;;;13.82;77.04;97106.48;1804095;79;27351;-89
2022/10/15 08:28:53;;;;;;;22.40;18.05;;;;;;;14.12;76.65;97108.19;1804139;79;25721;-89
2022/10/15 08:31:19;;;;;;;21.37;17.65;;;;;;;14.37;76.23;97110.84;1800408;79;25901;-84
2022/10/15 08:33:46;;;;;;;22.27;17.30;;;;;;;14.68;75.83;97097.87;1787382;79;25744;-90
2022/10/15 08:36:13;;;;;;;22.22;17.52;;;;;;;14.93;75.11;97105.64;1791792;79;25738;-89
2022/10/15 08:38:39;;;;;;;23.45;17.75;;;;;;;15.15;74.53;97111.98;1807164;79;27326;-88
2022/10/15 08:41:23;;;;;;;22.95;17.17;;;;;;;15.32;73.79;97112.81;1800719;79;25795;-89
2022/10/15 08:43:50;;;;;;;21.30;16.07;;;;;;;15.58;73.47;97105.86;1767711;79;25737;-89
2022/10/15 08:46:25;;;;;;;20.30;17.23;;;;;;;15.92;73.05;97098.45;1800680;79;25748;-90
2022/10/15 08:48:54;;;;;;;19.77;15.75;;;;;;;16.17;71.84;97108.30;1806965;79;25667;-89
2022/10/15 08:51:25;;;;;;;21.05;16.30;;;;;;;16.44;71.52;97113.77;1807148;79;27365;-86
2022/10/15 08:53:56;;;;;;;21.90;15.60;;;;;;;16.74;71.28;97111.95;1807243;79;25755;-89
2022/10/15 08:56:39;;;;;;;18.77;15.72;;;;;;;17.03;70.46;97111.65;1807217;79;25772;-87
2022/10/15 08:59:32;;;;;;;20.77;15.55;;;;;;;17.19;69.76;97108.80;1807485;79;26451;-89
2022/10/15 09:02:16;;;;;;;25.08;15.03;;;;;;;17.30;69.28;97101.52;1807351;79;25668;-88
2022/10/15 09:05:23;;;;;;;20.75;15.30;;;;;;;17.45;68.72;97101.63;1807174;79;27334;-85
2022/10/15 09:07:55;;;;;;;22.55;14.95;;;;;;;17.66;68.15;97111.34;1807029;79;25816;-89
2022/10/15 09:10:39;;;;;;;19.65;14.93;;;;;;;17.80;67.86;97108.43;1806236;79;34854;-90
2022/10/15 09:13:13;;;;;;;20.40;15.43;;;;;;;17.75;66.45;97107.05;1807305;79;25789;-87
2022/10/15 09:15:56;;;;;;;20.77;15.90;;;;;;;17.61;66.29;97106.13;1804686;79;25881;-90
2022/10/15 09:18:24;;;;;;;;;;;;;;;17.58;66.00;97112.09;1809934;79;27365;-89
2022/10/15 09:20:53;;;;;;;16.37;14.40;;;;;;;17.67;64.73;97104.80;1793928;79;25723;-89
2022/10/15 09:23:24;;;;;;;19.02;15.28;;;;;;;17.77;65.47;97107.05;1807129;79;26477;-87
2022/10/15 09:26:02;;;;;;;17.07;14.53;;;;;;;17.93;65.16;97105.23;1807377;79;26273;-88
2022/10/15 09:28:37;;;;;;;19.65;14.00;;;;;;;18.09;65.01;97101.49;1801372;79;25662;-89
2022/10/15 09:31:07;;;;;;;16.17;13.88;;;;;;;18.30;64.96;97105.94;1806900;79;28919;-88
2022/10/15 09:33:48;;;;;;;20.65;14.28;;;;;;;18.49;64.50;97110.91;1807011;79;25686;-86
2022/10/15 09:36:38;;;;;;;15.72;13.80;;;;;;;18.65;64.18;97110.72;1783018;79;26020;-87
2022/10/15 09:39:57;;;;;;;17.15;14.43;;;;;;;18.88;63.65;97110.77;1793126;79;25767;-90
2022/10/15 09:42:40;;;;;;;19.00;14.68;;;;;;;19.08;62.65;97106.67;1807317;79;25756;-85
2022/10/15 09:45:12;;;;;;;;;;;;;;;19.30;62.43;97105.60;1803281;79;28175;-88
2022/10/15 09:47:41;;;;;;;16.03;14.10;;;;;;;19.44;60.52;97100.64;1796900;79;25692;-86
2022/10/15 09:50:11;;;;;;;17.65;13.72;;;;;;;19.61;61.46;97104.50;1803929;79;26436;-89
2022/10/15 09:53:13;;;;;;;20.35;14.73;;;;;;;19.71;60.75;97100.91;1807149;79;25771;-90
2022/10/15 09:55:53;;;;;;;20.82;14.50;;;;;;;19.71;60.82;97107.21;1807190;79;25714;-89
2022/10/15 09:58:30;;;;;;;20.35;14.55;;;;;;;19.78;60.51;97113.24;1806022;79;28178;-89
2022/10/15 10:01:04;;;;;;;16.93;14.53;;;;;;;19.91;60.18;97108.28;1776539;79;26413;-88
2022/10/15 10:03:34;;;;;;;17.82;13.78;;;;;;;19.99;59.58;97095.38;1806855;79;25769;-86
2022/10/15 10:06:08;;;;;;;18.82;13.20;;;;;;;20.05;59.17;97098.35;1807266;79;25799;-85
2022/10/15 10:08:39;;;;;;;17.82;13.40;;;;;;;20.14;58.88;97105.73;1793157;79;25693;-88
2022/10/15 10:11:09;;;;;;;15.05;12.73;;;;;;;20.14;58.88;97105.73;1811099;79;28304;-88
2022/10/15 10:13:50;;;;;;;15.93;12.58;;;;;;;20.25;58.46;97098.84;1806732;79;25773;-85
2022/10/15 10:16:20;;;;;;;17.80;13.68;;;;;;;20.33;58.39;97096.33;1798940;79;25722;-86
2022/10/15 10:19:06;;;;;;;14.78;12.37;;;;;;;20.34;58.04;97081.53;1800780;79;25755;-87
2022/10/15 10:21:38;;;;;;;16.02;12.68;;;;;;;20.55;57.54;97096.52;1790031;79;25690;-88
2022/10/15 10:24:29;;;;;;;18.37;11.75;;;;;;;20.64;57.12;97092.11;1807398;79;27393;-87
2022/10/15 10:27:00;;;;;;;14.63;12.10;;;;;;;21.00;56.41;97088.03;1807024;79;25215;-89
2022/10/15 10:29:28;;;;;;;16.20;11.78;;;;;;;21.00;56.41;97088.03;1761305;79;25330;-89
2022/10/15 10:31:55;;;;;;;14.15;11.68;;;;;;;21.09;56.04;97086.30;1763923;79;26485;-90
2022/10/15 10:34:29;;;;;;;17.40;11.08;;;;;;;21.10;55.70;97087.13;1759150;81;25719;-91
2022/10/15 10:36:56;;;;;;;16.70;10.82;;;;;;;21.06;55.45;97086.88;1755070;81;27551;-92
2022/10/15 10:39:30;;;;;;;13.00;11.22;;;;;;;20.95;54.55;97077.62;1713996;81;25829;-91
2022/10/15 10:42:06;;;;;;;14.13;10.90;;;;;;;20.84;54.36;97083.19;1715569;81;25756;-88
2022/10/15 10:44:37;;;;;;;14.53;10.63;;;;;;;20.81;54.55;97078.82;1706326;81;25789;-90
2022/10/15 10:47:25;;;;;;;11.97;10.60;;;;;;;20.73;54.16;97091.22;1757800;81;25671;-85
2022/10/15 10:49:56;;;;;;;12.30;10.82;;;;;;;20.47;53.96;97074.09;1756956;81;27441;-91
2022/10/15 10:52:33;;;;;;;15.08;11.60;;;;;;;20.19;54.15;97091.18;1740279;81;25723;-88
2022/10/15 10:55:17;;;;;;;18.48;11.20;;;;;;;20.19;54.15;97091.18;1757960;81;26736;-91
2022/10/15 10:57:56;;;;;;;15.38;11.05;;;;;;;20.03;53.94;97092.36;1752949;81;25694;-86
2022/10/15 11:00:42;;;;;;;12.28;10.55;;;;;;;19.90;53.88;97094.31;1707912;81;25293;-91
2022/10/15 11:03:23;;;;;;;12.55;10.45;;;;;;;19.69;53.69;97097.08;1718323;81;27344;-88
2022/10/15 11:05:55;;;;;;;12.75;10.90;;;;;;;19.31;53.84;97103.14;1717296;81;25722;-91
2022/10/15 11:08:33;;;;;;;12.13;10.55;;;;;;;19.31;53.84;97103.14;1720523;81;32484;-88
2022/10/15 11:11:23;;;;;;;12.37;10.53;;;;;;;19.27;53.92;97097.38;1700251;81;26751;-91
2022/10/15 11:14:16;;;;;;;11.70;10.23;;;;;;;19.30;53.74;97091.92;1721123;81;25726;-91
2022/10/15 11:17:11;;;;;;;14.65;11.15;;;;;;;19.25;53.96;97091.36;1717743;81;28210;-88
2022/10/15 11:19:53;;;;;;;12.33;10.40;;;;;;;19.08;53.97;97061.53;1643767;85;25830;-93
2022/10/15 11:22:34;;;;;;;14.77;11.37;;;;;;;19.29;53.98;97082.06;1660929;84;25910;-92
2022/10/15 11:25:32;;;;;;;12.82;11.28;;;;;;;19.32;54.10;97084.27;1642959;85;25707;-87
2022/10/15 11:28:35;;;;;;;17.40;11.83;;;;;;;19.39;54.12;97078.77;1620719;85;25739;-89
2022/10/15 11:31:39;;;;;;;14.85;11.75;;;;;;;19.37;53.93;97071.92;1652681;84;27307;-88
2022/10/15 11:34:32;;;;;;;16.87;10.70;;;;;;;19.36;54.12;97070.28;1685731;85;25938;-86
2022/10/15 11:37:28;;;;;;;13.00;11.08;;;;;;;19.42;54.37;97070.56;1666601;84;25809;-89
2022/10/15 11:40:12;;;;;;;14.75;11.68;;;;;;;19.37;54.21;97068.64;1671647;85;25929;-89
2022/10/15 11:42:55;;;;;;;13.53;10.48;;;;;;;19.39;54.26;97071.10;1686509;85;25823;-89
2022/10/15 11:45:49;;;;;;;14.07;11.33;;;;;;;19.43;54.25;97073.03;1657181;85;27470;-89